sensor_id;sensor_type;location;lat;lon;timestamp;P1;durP1;ratioP1;P2;durP2;ratioP2
47431;SDS011;33183;52.290;6.144;2023-02-01T00:01:38;6.40;;;3.10;;
47431;SDS011;33183;52.290;6.144;2023-02-01T00:04:03;8.13;;;3.28;;
47431;SDS011;33183;52.290;6.144;2023-02-01T00:06:28;9.30;;;4.22;;
47431;SDS011;33183;52.290;6.144;2023-02-01T00:08:54;8.77;;;3.17;;
47431;SDS011;33183;52.290;6.144;2023-02-01T00:11:20;6.38;;;3.00;;
47431;SDS011;33183;52.290;6.144;2023-02-01T00:13:45;6.88;;;2.67;;
47431;SDS011;33183;52.290;6.144;2023-02-01T00:16:12;10.25;;;4.78;;
47431;SDS011;33183;52.290;6.144;2023-02-01T00:18:41;6.72;;;2.83;;
47431;SDS011;33183;52.290;6.144;2023-02-01T00:21:06;10.02;;;3.72;;
47431;SDS011;33183;52.290;6.144;2023-02-01T00:23:32;6.93;;;3.60;;
47431;SDS011;33183;52.290;6.144;2023-02-01T00:26:05;6.43;;;2.70;;
47431;SDS011;33183;52.290;6.144;2023-02-01T00:28:32;9.23;;;3.13;;
47431;SDS011;33183;52.290;6.144;2023-02-01T00:31:01;9.45;;;3.42;;
47431;SDS011;33183;52.290;6.144;2023-02-01T00:33:28;6.63;;;2.58;;
47431;SDS011;33183;52.290;6.144;2023-02-01T00:35:57;7.32;;;2.95;;
47431;SDS011;33183;52.290;6.144;2023-02-01T00:38:24;7.40;;;2.85;;
47431;SDS011;33183;52.290;6.144;2023-02-01T00:40:50;8.05;;;3.10;;
47431;SDS011;33183;52.290;6.144;2023-02-01T00:43:15;5.40;;;2.22;;
47431;SDS011;33183;52.290;6.144;2023-02-01T00:45:40;5.45;;;2.70;;
47431;SDS011;33183;52.290;6.144;2023-02-01T00:48:06;9.13;;;3.33;;
47431;SDS011;33183;52.290;6.144;2023-02-01T00:50:31;6.47;;;3.00;;
47431;SDS011;33183;52.290;6.144;2023-02-01T00:52:56;8.82;;;3.00;;
47431;SDS011;33183;52.290;6.144;2023-02-01T00:55:21;8.27;;;4.15;;
47431;SDS011;33183;52.290;6.144;2023-02-01T00:57:47;7.93;;;2.95;;
47431;SDS011;33183;52.290;6.144;2023-02-01T01:00:12;7.25;;;3.22;;
47431;SDS011;33183;52.290;6.144;2023-02-01T01:02:37;6.65;;;2.50;;
47431;SDS011;33183;52.290;6.144;2023-02-01T01:05:03;8.30;;;3.03;;
47431;SDS011;33183;52.290;6.144;2023-02-01T01:07:28;8.63;;;3.30;;
47431;SDS011;33183;52.290;6.144;2023-02-01T01:09:54;6.95;;;2.85;;
47431;SDS011;33183;52.290;6.144;2023-02-01T01:12:19;6.57;;;3.22;;
47431;SDS011;33183;52.290;6.144;2023-02-01T01:14:45;7.15;;;2.95;;
47431;SDS011;33183;52.290;6.144;2023-02-01T01:17:10;8.55;;;3.35;;
47431;SDS011;33183;52.290;6.144;2023-02-01T01:19:35;5.78;;;2.70;;
47431;SDS011;33183;52.290;6.144;2023-02-01T01:22:01;10.38;;;3.17;;
47431;SDS011;33183;52.290;6.144;2023-02-01T01:24:26;7.35;;;2.47;;
47431;SDS011;33183;52.290;6.144;2023-02-01T01:26:51;6.22;;;2.42;;
47431;SDS011;33183;52.290;6.144;2023-02-01T01:29:17;7.97;;;2.70;;
47431;SDS011;33183;52.290;6.144;2023-02-01T01:31:42;7.75;;;2.97;;
47431;SDS011;33183;52.290;6.144;2023-02-01T01:34:07;6.90;;;3.22;;
47431;SDS011;33183;52.290;6.144;2023-02-01T01:36:33;8.65;;;3.75;;
47431;SDS011;33183;52.290;6.144;2023-02-01T01:38:58;7.13;;;2.70;;
47431;SDS011;33183;52.290;6.144;2023-02-01T01:41:25;7.32;;;2.65;;
47431;SDS011;33183;52.290;6.144;2023-02-01T01:49:12;6.60;;;2.70;;
47431;SDS011;33183;52.290;6.144;2023-02-01T01:51:44;7.40;;;2.78;;
47431;SDS011;33183;52.290;6.144;2023-02-01T01:54:55;4.95;;;2.47;;
47431;SDS011;33183;52.290;6.144;2023-02-01T01:57:10;7.70;;;3.65;;
47431;SDS011;33183;52.290;6.144;2023-02-01T01:59:37;7.95;;;3.00;;
47431;SDS011;33183;52.290;6.144;2023-02-01T02:02:03;9.07;;;2.75;;
47431;SDS011;33183;52.290;6.144;2023-02-01T02:04:29;7.20;;;2.78;;
47431;SDS011;33183;52.290;6.144;2023-02-01T02:07:09;8.45;;;2.83;;
47431;SDS011;33183;52.290;6.144;2023-02-01T02:09:36;6.25;;;2.83;;
47431;SDS011;33183;52.290;6.144;2023-02-01T02:12:02;7.18;;;2.33;;
47431;SDS011;33183;52.290;6.144;2023-02-01T02:14:27;5.63;;;2.35;;
47431;SDS011;33183;52.290;6.144;2023-02-01T02:30:34;9.07;;;3.50;;
47431;SDS011;33183;52.290;6.144;2023-02-01T02:33:15;7.90;;;2.70;;
47431;SDS011;33183;52.290;6.144;2023-02-01T02:44:33;8.05;;;2.92;;
47431;SDS011;33183;52.290;6.144;2023-02-01T02:50:22;9.45;;;2.78;;
47431;SDS011;33183;52.290;6.144;2023-02-01T02:53:12;8.18;;;2.63;;
47431;SDS011;33183;52.290;6.144;2023-02-01T02:55:58;8.48;;;2.90;;
47431;SDS011;33183;52.290;6.144;2023-02-01T02:58:43;8.27;;;2.40;;
47431;SDS011;33183;52.290;6.144;2023-02-01T03:01:28;8.55;;;2.80;;
47431;SDS011;33183;52.290;6.144;2023-02-01T03:04:13;8.63;;;3.00;;
47431;SDS011;33183;52.290;6.144;2023-02-01T03:06:42;10.95;;;4.10;;
47431;SDS011;33183;52.290;6.144;2023-02-01T03:09:09;9.35;;;3.03;;
47431;SDS011;33183;52.290;6.144;2023-02-01T03:14:43;9.32;;;2.65;;
47431;SDS011;33183;52.290;6.144;2023-02-01T03:17:13;7.40;;;2.58;;
47431;SDS011;33183;52.290;6.144;2023-02-01T03:19:40;6.85;;;2.67;;
47431;SDS011;33183;52.290;6.144;2023-02-01T03:22:14;7.20;;;3.55;;
47431;SDS011;33183;52.290;6.144;2023-02-01T03:24:43;7.35;;;2.63;;
47431;SDS011;33183;52.290;6.144;2023-02-01T03:27:15;8.52;;;3.63;;
47431;SDS011;33183;52.290;6.144;2023-02-01T03:32:34;7.13;;;3.38;;
47431;SDS011;33183;52.290;6.144;2023-02-01T03:35:22;6.88;;;2.60;;
47431;SDS011;33183;52.290;6.144;2023-02-01T03:37:56;7.72;;;3.30;;
47431;SDS011;33183;52.290;6.144;2023-02-01T03:40:27;8.40;;;2.70;;
47431;SDS011;33183;52.290;6.144;2023-02-01T03:45:29;9.02;;;2.97;;
47431;SDS011;33183;52.290;6.144;2023-02-01T03:47:58;9.07;;;2.83;;
47431;SDS011;33183;52.290;6.144;2023-02-01T03:50:25;9.18;;;2.90;;
47431;SDS011;33183;52.290;6.144;2023-02-01T03:53:05;9.63;;;3.22;;
47431;SDS011;33183;52.290;6.144;2023-02-01T03:55:32;8.52;;;3.58;;
47431;SDS011;33183;52.290;6.144;2023-02-01T03:58:02;8.18;;;2.95;;
47431;SDS011;33183;52.290;6.144;2023-02-01T04:00:31;6.20;;;2.42;;
47431;SDS011;33183;52.290;6.144;2023-02-01T04:02:56;8.20;;;3.22;;
47431;SDS011;33183;52.290;6.144;2023-02-01T04:05:22;7.15;;;3.00;;
47431;SDS011;33183;52.290;6.144;2023-02-01T04:07:47;7.85;;;2.67;;
47431;SDS011;33183;52.290;6.144;2023-02-01T04:10:12;7.90;;;3.60;;
47431;SDS011;33183;52.290;6.144;2023-02-01T04:12:38;9.15;;;3.10;;
47431;SDS011;33183;52.290;6.144;2023-02-01T04:15:04;11.68;;;3.38;;
47431;SDS011;33183;52.290;6.144;2023-02-01T04:17:30;9.80;;;3.00;;
47431;SDS011;33183;52.290;6.144;2023-02-01T04:19:55;8.23;;;2.88;;
47431;SDS011;33183;52.290;6.144;2023-02-01T04:22:21;8.02;;;3.33;;
47431;SDS011;33183;52.290;6.144;2023-02-01T04:24:46;9.88;;;3.83;;
47431;SDS011;33183;52.290;6.144;2023-02-01T04:27:11;8.55;;;2.75;;
47431;SDS011;33183;52.290;6.144;2023-02-01T04:29:37;11.30;;;3.45;;
47431;SDS011;33183;52.290;6.144;2023-02-01T04:32:02;10.63;;;3.95;;
47431;SDS011;33183;52.290;6.144;2023-02-01T04:34:28;12.30;;;3.78;;
47431;SDS011;33183;52.290;6.144;2023-02-01T04:36:53;9.65;;;3.50;;
47431;SDS011;33183;52.290;6.144;2023-02-01T04:39:18;10.90;;;3.10;;
47431;SDS011;33183;52.290;6.144;2023-02-01T04:41:44;8.65;;;3.17;;
47431;SDS011;33183;52.290;6.144;2023-02-01T04:44:12;8.50;;;3.00;;
47431;SDS011;33183;52.290;6.144;2023-02-01T04:46:39;9.35;;;2.95;;
47431;SDS011;33183;52.290;6.144;2023-02-01T04:49:05;8.32;;;2.97;;
47431;SDS011;33183;52.290;6.144;2023-02-01T04:51:30;9.50;;;3.05;;
47431;SDS011;33183;52.290;6.144;2023-02-01T04:53:55;11.30;;;3.50;;
47431;SDS011;33183;52.290;6.144;2023-02-01T04:56:21;12.45;;;3.88;;
47431;SDS011;33183;52.290;6.144;2023-02-01T04:58:46;9.55;;;3.63;;
47431;SDS011;33183;52.290;6.144;2023-02-01T05:01:12;7.30;;;2.80;;
47431;SDS011;33183;52.290;6.144;2023-02-01T05:03:37;7.53;;;2.53;;
47431;SDS011;33183;52.290;6.144;2023-02-01T05:06:02;9.73;;;3.20;;
47431;SDS011;33183;52.290;6.144;2023-02-01T05:08:29;5.82;;;2.55;;
47431;SDS011;33183;52.290;6.144;2023-02-01T05:10:55;8.02;;;2.78;;
47431;SDS011;33183;52.290;6.144;2023-02-01T05:13:21;12.07;;;3.25;;
47431;SDS011;33183;52.290;6.144;2023-02-01T05:16:04;9.20;;;3.13;;
47431;SDS011;33183;52.290;6.144;2023-02-01T05:18:30;11.20;;;3.20;;
47431;SDS011;33183;52.290;6.144;2023-02-01T05:20:55;8.25;;;3.25;;
47431;SDS011;33183;52.290;6.144;2023-02-01T05:23:21;11.35;;;3.28;;
47431;SDS011;33183;52.290;6.144;2023-02-01T05:25:46;7.95;;;2.83;;
47431;SDS011;33183;52.290;6.144;2023-02-01T05:28:11;10.10;;;2.97;;
47431;SDS011;33183;52.290;6.144;2023-02-01T05:30:36;10.65;;;3.20;;
47431;SDS011;33183;52.290;6.144;2023-02-01T05:33:02;11.43;;;3.85;;
47431;SDS011;33183;52.290;6.144;2023-02-01T05:35:28;10.25;;;3.00;;
47431;SDS011;33183;52.290;6.144;2023-02-01T05:37:54;11.93;;;3.13;;
47431;SDS011;33183;52.290;6.144;2023-02-01T05:40:19;8.82;;;2.53;;
47431;SDS011;33183;52.290;6.144;2023-02-01T05:42:45;9.52;;;3.17;;
47431;SDS011;33183;52.290;6.144;2023-02-01T05:45:10;10.73;;;3.13;;
47431;SDS011;33183;52.290;6.144;2023-02-01T05:47:35;7.72;;;3.10;;
47431;SDS011;33183;52.290;6.144;2023-02-01T05:50:01;7.80;;;2.67;;
47431;SDS011;33183;52.290;6.144;2023-02-01T05:52:26;8.88;;;3.20;;
47431;SDS011;33183;52.290;6.144;2023-02-01T05:54:51;9.40;;;3.40;;
47431;SDS011;33183;52.290;6.144;2023-02-01T05:57:17;9.68;;;3.30;;
47431;SDS011;33183;52.290;6.144;2023-02-01T05:59:42;8.95;;;3.10;;
47431;SDS011;33183;52.290;6.144;2023-02-01T06:02:10;12.63;;;4.07;;
47431;SDS011;33183;52.290;6.144;2023-02-01T06:04:36;7.93;;;3.30;;
47431;SDS011;33183;52.290;6.144;2023-02-01T06:07:01;8.07;;;3.50;;
47431;SDS011;33183;52.290;6.144;2023-02-01T06:09:26;11.50;;;3.72;;
47431;SDS011;33183;52.290;6.144;2023-02-01T06:11:53;9.40;;;3.83;;
47431;SDS011;33183;52.290;6.144;2023-02-01T06:14:18;10.57;;;3.92;;
47431;SDS011;33183;52.290;6.144;2023-02-01T06:16:43;8.63;;;3.35;;
47431;SDS011;33183;52.290;6.144;2023-02-01T06:19:10;10.63;;;3.70;;
47431;SDS011;33183;52.290;6.144;2023-02-01T06:21:36;6.65;;;3.20;;
47431;SDS011;33183;52.290;6.144;2023-02-01T06:24:01;8.90;;;3.15;;
47431;SDS011;33183;52.290;6.144;2023-02-01T06:26:26;9.23;;;3.15;;
47431;SDS011;33183;52.290;6.144;2023-02-01T06:28:53;8.65;;;2.88;;
47431;SDS011;33183;52.290;6.144;2023-02-01T06:31:20;8.45;;;3.63;;
47431;SDS011;33183;52.290;6.144;2023-02-01T06:33:45;7.18;;;2.95;;
47431;SDS011;33183;52.290;6.144;2023-02-01T06:36:11;12.32;;;3.70;;
47431;SDS011;33183;52.290;6.144;2023-02-01T06:38:37;12.60;;;3.72;;
47431;SDS011;33183;52.290;6.144;2023-02-01T06:41:03;11.82;;;4.35;;
47431;SDS011;33183;52.290;6.144;2023-02-01T06:43:30;9.80;;;3.72;;
47431;SDS011;33183;52.290;6.144;2023-02-01T06:46:01;7.40;;;3.25;;
47431;SDS011;33183;52.290;6.144;2023-02-01T06:48:27;8.77;;;3.47;;
47431;SDS011;33183;52.290;6.144;2023-02-01T06:50:53;9.48;;;3.67;;
47431;SDS011;33183;52.290;6.144;2023-02-01T06:53:18;9.38;;;3.50;;
47431;SDS011;33183;52.290;6.144;2023-02-01T06:55:53;10.27;;;3.42;;
47431;SDS011;33183;52.290;6.144;2023-02-01T06:58:28;10.90;;;3.50;;
47431;SDS011;33183;52.290;6.144;2023-02-01T07:00:54;8.80;;;3.33;;
47431;SDS011;33183;52.290;6.144;2023-02-01T07:03:19;12.88;;;4.32;;
47431;SDS011;33183;52.290;6.144;2023-02-01T07:05:45;15.43;;;3.75;;
47431;SDS011;33183;52.290;6.144;2023-02-01T07:08:10;14.10;;;4.25;;
47431;SDS011;33183;52.290;6.144;2023-02-01T07:10:36;12.10;;;3.47;;
47431;SDS011;33183;52.290;6.144;2023-02-01T07:13:02;12.43;;;3.78;;
47431;SDS011;33183;52.290;6.144;2023-02-01T07:15:27;8.40;;;3.00;;
47431;SDS011;33183;52.290;6.144;2023-02-01T07:17:56;9.80;;;3.80;;
47431;SDS011;33183;52.290;6.144;2023-02-01T07:20:21;8.18;;;3.35;;
47431;SDS011;33183;52.290;6.144;2023-02-01T07:22:47;8.52;;;4.43;;
47431;SDS011;33183;52.290;6.144;2023-02-01T07:25:12;12.65;;;3.70;;
47431;SDS011;33183;52.290;6.144;2023-02-01T07:27:37;9.75;;;3.65;;
47431;SDS011;33183;52.290;6.144;2023-02-01T07:30:06;9.05;;;3.45;;
47431;SDS011;33183;52.290;6.144;2023-02-01T07:32:32;10.98;;;3.75;;
47431;SDS011;33183;52.290;6.144;2023-02-01T07:34:57;9.75;;;3.50;;
47431;SDS011;33183;52.290;6.144;2023-02-01T07:37:23;10.07;;;4.10;;
47431;SDS011;33183;52.290;6.144;2023-02-01T07:39:49;12.57;;;4.43;;
47431;SDS011;33183;52.290;6.144;2023-02-01T07:42:15;10.52;;;5.10;;
47431;SDS011;33183;52.290;6.144;2023-02-01T07:44:40;9.90;;;4.22;;
47431;SDS011;33183;52.290;6.144;2023-02-01T07:47:05;11.38;;;4.60;;
47431;SDS011;33183;52.290;6.144;2023-02-01T07:49:31;10.05;;;4.85;;
47431;SDS011;33183;52.290;6.144;2023-02-01T07:51:56;11.05;;;4.65;;
47431;SDS011;33183;52.290;6.144;2023-02-01T07:54:21;14.35;;;5.10;;
47431;SDS011;33183;52.290;6.144;2023-02-01T07:56:46;11.15;;;4.95;;
47431;SDS011;33183;52.290;6.144;2023-02-01T07:59:12;12.02;;;5.53;;
47431;SDS011;33183;52.290;6.144;2023-02-01T08:01:37;11.20;;;4.53;;
47431;SDS011;33183;52.290;6.144;2023-02-01T08:04:02;14.23;;;4.88;;
47431;SDS011;33183;52.290;6.144;2023-02-01T08:06:29;14.20;;;5.55;;
47431;SDS011;33183;52.290;6.144;2023-02-01T08:08:56;11.88;;;5.70;;
47431;SDS011;33183;52.290;6.144;2023-02-01T08:11:22;14.07;;;5.65;;
47431;SDS011;33183;52.290;6.144;2023-02-01T08:13:47;12.20;;;5.10;;
47431;SDS011;33183;52.290;6.144;2023-02-01T08:16:14;13.07;;;5.97;;
47431;SDS011;33183;52.290;6.144;2023-02-01T08:18:40;18.92;;;5.38;;
47431;SDS011;33183;52.290;6.144;2023-02-01T08:21:13;10.90;;;5.00;;
47431;SDS011;33183;52.290;6.144;2023-02-01T08:23:40;11.95;;;5.30;;
47431;SDS011;33183;52.290;6.144;2023-02-01T08:26:13;12.50;;;5.55;;
47431;SDS011;33183;52.290;6.144;2023-02-01T08:28:45;13.68;;;6.07;;
47431;SDS011;33183;52.290;6.144;2023-02-01T08:31:13;10.07;;;6.05;;
47431;SDS011;33183;52.290;6.144;2023-02-01T08:33:40;10.05;;;5.70;;
47431;SDS011;33183;52.290;6.144;2023-02-01T08:36:06;13.13;;;5.55;;
47431;SDS011;33183;52.290;6.144;2023-02-01T08:38:32;17.15;;;5.68;;
47431;SDS011;33183;52.290;6.144;2023-02-01T08:41:03;13.25;;;6.15;;
47431;SDS011;33183;52.290;6.144;2023-02-01T08:43:29;12.80;;;6.20;;
47431;SDS011;33183;52.290;6.144;2023-02-01T08:45:55;16.67;;;7.00;;
47431;SDS011;33183;52.290;6.144;2023-02-01T08:48:20;13.93;;;6.15;;
47431;SDS011;33183;52.290;6.144;2023-02-01T08:50:46;12.38;;;6.88;;
47431;SDS011;33183;52.290;6.144;2023-02-01T08:53:11;14.63;;;7.97;;
47431;SDS011;33183;52.290;6.144;2023-02-01T08:55:38;13.07;;;7.00;;
47431;SDS011;33183;52.290;6.144;2023-02-01T08:58:04;13.65;;;7.28;;
47431;SDS011;33183;52.290;6.144;2023-02-01T09:00:29;10.88;;;7.07;;
47431;SDS011;33183;52.290;6.144;2023-02-01T09:02:55;13.65;;;6.82;;
47431;SDS011;33183;52.290;6.144;2023-02-01T09:05:20;12.95;;;6.35;;
47431;SDS011;33183;52.290;6.144;2023-02-01T09:07:47;13.65;;;6.57;;
47431;SDS011;33183;52.290;6.144;2023-02-01T09:10:12;12.63;;;7.18;;
47431;SDS011;33183;52.290;6.144;2023-02-01T09:12:37;15.40;;;6.70;;
47431;SDS011;33183;52.290;6.144;2023-02-01T09:15:03;11.55;;;6.15;;
47431;SDS011;33183;52.290;6.144;2023-02-01T09:17:31;13.48;;;7.63;;
47431;SDS011;33183;52.290;6.144;2023-02-01T09:19:57;23.48;;;7.88;;
47431;SDS011;33183;52.290;6.144;2023-02-01T09:22:22;12.73;;;7.55;;
47431;SDS011;33183;52.290;6.144;2023-02-01T09:24:48;15.63;;;7.05;;
47431;SDS011;33183;52.290;6.144;2023-02-01T09:27:13;12.65;;;6.63;;
47431;SDS011;33183;52.290;6.144;2023-02-01T09:29:39;14.75;;;6.70;;
47431;SDS011;33183;52.290;6.144;2023-02-01T09:32:04;14.38;;;6.10;;
47431;SDS011;33183;52.290;6.144;2023-02-01T09:34:31;13.05;;;6.55;;
47431;SDS011;33183;52.290;6.144;2023-02-01T09:36:57;17.52;;;6.78;;
47431;SDS011;33183;52.290;6.144;2023-02-01T09:39:22;15.27;;;6.97;;
47431;SDS011;33183;52.290;6.144;2023-02-01T09:47:43;16.85;;;6.30;;
47431;SDS011;33183;52.290;6.144;2023-02-01T09:50:13;10.50;;;5.80;;
47431;SDS011;33183;52.290;6.144;2023-02-01T09:52:52;16.25;;;6.47;;
47431;SDS011;33183;52.290;6.144;2023-02-01T09:55:40;11.73;;;5.68;;
47431;SDS011;33183;52.290;6.144;2023-02-01T09:58:09;9.82;;;5.30;;
47431;SDS011;33183;52.290;6.144;2023-02-01T10:00:39;10.82;;;5.90;;
47431;SDS011;33183;52.290;6.144;2023-02-01T10:03:05;11.38;;;5.53;;
47431;SDS011;33183;52.290;6.144;2023-02-01T10:06:11;13.70;;;6.03;;
47431;SDS011;33183;52.290;6.144;2023-02-01T10:14:30;10.80;;;4.85;;
47431;SDS011;33183;52.290;6.144;2023-02-01T10:22:20;10.70;;;5.55;;
47431;SDS011;33183;52.290;6.144;2023-02-01T10:27:48;9.95;;;5.45;;
47431;SDS011;33183;52.290;6.144;2023-02-01T10:30:24;12.77;;;5.47;;
47431;SDS011;33183;52.290;6.144;2023-02-01T10:32:55;13.45;;;5.95;;
47431;SDS011;33183;52.290;6.144;2023-02-01T10:35:26;9.40;;;4.80;;
47431;SDS011;33183;52.290;6.144;2023-02-01T10:37:54;9.98;;;4.90;;
47431;SDS011;33183;52.290;6.144;2023-02-01T10:40:21;9.25;;;4.65;;
47431;SDS011;33183;52.290;6.144;2023-02-01T10:42:49;9.13;;;4.83;;
47431;SDS011;33183;52.290;6.144;2023-02-01T10:45:19;12.65;;;5.20;;
47431;SDS011;33183;52.290;6.144;2023-02-01T10:47:47;10.43;;;5.20;;
47431;SDS011;33183;52.290;6.144;2023-02-01T10:50:16;12.85;;;4.97;;
47431;SDS011;33183;52.290;6.144;2023-02-01T10:52:56;13.50;;;4.35;;
47431;SDS011;33183;52.290;6.144;2023-02-01T10:55:28;11.77;;;4.95;;
47431;SDS011;33183;52.290;6.144;2023-02-01T10:58:27;12.10;;;4.72;;
47431;SDS011;33183;52.290;6.144;2023-02-01T11:01:01;10.07;;;4.40;;
47431;SDS011;33183;52.290;6.144;2023-02-01T11:09:00;10.32;;;3.78;;
47431;SDS011;33183;52.290;6.144;2023-02-01T11:11:29;9.82;;;4.30;;
47431;SDS011;33183;52.290;6.144;2023-02-01T11:13:56;8.27;;;4.13;;
47431;SDS011;33183;52.290;6.144;2023-02-01T11:16:23;11.43;;;4.20;;
47431;SDS011;33183;52.290;6.144;2023-02-01T11:18:54;9.73;;;4.00;;
47431;SDS011;33183;52.290;6.144;2023-02-01T11:21:20;14.25;;;4.68;;
47431;SDS011;33183;52.290;6.144;2023-02-01T11:23:46;11.30;;;4.40;;
47431;SDS011;33183;52.290;6.144;2023-02-01T11:28:38;8.18;;;3.65;;
47431;SDS011;33183;52.290;6.144;2023-02-01T11:31:07;13.95;;;4.30;;
47431;SDS011;33183;52.290;6.144;2023-02-01T11:33:35;12.98;;;4.47;;
47431;SDS011;33183;52.290;6.144;2023-02-01T11:36:07;12.15;;;4.10;;
47431;SDS011;33183;52.290;6.144;2023-02-01T11:38:38;10.77;;;4.22;;
47431;SDS011;33183;52.290;6.144;2023-02-01T11:41:14;9.73;;;4.40;;
47431;SDS011;33183;52.290;6.144;2023-02-01T11:43:59;15.00;;;4.55;;
47431;SDS011;33183;52.290;6.144;2023-02-01T11:46:29;12.30;;;4.32;;
47431;SDS011;33183;52.290;6.144;2023-02-01T11:48:57;11.02;;;3.40;;
47431;SDS011;33183;52.290;6.144;2023-02-01T11:54:39;10.93;;;3.45;;
47431;SDS011;33183;52.290;6.144;2023-02-01T12:00:01;9.23;;;3.50;;
47431;SDS011;33183;52.290;6.144;2023-02-01T12:08:32;11.40;;;4.80;;
47431;SDS011;33183;52.290;6.144;2023-02-01T12:21:27;10.00;;;3.53;;
47431;SDS011;33183;52.290;6.144;2023-02-01T12:24:00;9.00;;;3.20;;
47431;SDS011;33183;52.290;6.144;2023-02-01T12:42:48;10.73;;;3.38;;
47431;SDS011;33183;52.290;6.144;2023-02-01T12:45:41;7.78;;;3.25;;
47431;SDS011;33183;52.290;6.144;2023-02-01T12:50:47;6.85;;;2.78;;
47431;SDS011;33183;52.290;6.144;2023-02-01T12:53:19;9.32;;;3.17;;
47431;SDS011;33183;52.290;6.144;2023-02-01T12:55:51;9.18;;;3.03;;
47431;SDS011;33183;52.290;6.144;2023-02-01T12:58:38;9.07;;;3.55;;
47431;SDS011;33183;52.290;6.144;2023-02-01T13:01:09;11.00;;;2.70;;
47431;SDS011;33183;52.290;6.144;2023-02-01T13:03:39;10.13;;;3.05;;
47431;SDS011;33183;52.290;6.144;2023-02-01T13:06:32;10.77;;;3.70;;
47431;SDS011;33183;52.290;6.144;2023-02-01T13:09:19;9.70;;;2.92;;
47431;SDS011;33183;52.290;6.144;2023-02-01T13:11:48;6.80;;;2.58;;
47431;SDS011;33183;52.290;6.144;2023-02-01T13:17:01;9.68;;;2.92;;
47431;SDS011;33183;52.290;6.144;2023-02-01T13:19:30;7.93;;;3.28;;
47431;SDS011;33183;52.290;6.144;2023-02-01T13:22:09;9.13;;;3.33;;
47431;SDS011;33183;52.290;6.144;2023-02-01T13:27:32;10.23;;;3.08;;
47431;SDS011;33183;52.290;6.144;2023-02-01T13:29:59;7.57;;;2.92;;
47431;SDS011;33183;52.290;6.144;2023-02-01T13:35:22;12.02;;;3.30;;
47431;SDS011;33183;52.290;6.144;2023-02-01T13:40:41;8.10;;;2.90;;
47431;SDS011;33183;52.290;6.144;2023-02-01T13:43:27;9.50;;;3.10;;
47431;SDS011;33183;52.290;6.144;2023-02-01T13:45:57;8.20;;;2.40;;
47431;SDS011;33183;52.290;6.144;2023-02-01T13:48:35;7.40;;;2.67;;
47431;SDS011;33183;52.290;6.144;2023-02-01T13:51:06;9.23;;;2.67;;
47431;SDS011;33183;52.290;6.144;2023-02-01T13:53:32;10.20;;;2.90;;
47431;SDS011;33183;52.290;6.144;2023-02-01T13:58:37;6.65;;;3.67;;
47431;SDS011;33183;52.290;6.144;2023-02-01T14:04:01;6.55;;;2.42;;
47431;SDS011;33183;52.290;6.144;2023-02-01T14:11:40;9.52;;;3.15;;
47431;SDS011;33183;52.290;6.144;2023-02-01T14:16:41;10.13;;;3.22;;
47431;SDS011;33183;52.290;6.144;2023-02-01T14:24:36;10.13;;;3.85;;
47431;SDS011;33183;52.290;6.144;2023-02-01T14:27:06;7.43;;;2.65;;
47431;SDS011;33183;52.290;6.144;2023-02-01T14:29:43;8.65;;;3.20;;
47431;SDS011;33183;52.290;6.144;2023-02-01T14:32:15;9.27;;;2.55;;
47431;SDS011;33183;52.290;6.144;2023-02-01T14:52:42;9.38;;;2.85;;
47431;SDS011;33183;52.290;6.144;2023-02-01T14:55:16;7.03;;;2.97;;
47431;SDS011;33183;52.290;6.144;2023-02-01T14:57:44;8.55;;;3.00;;
47431;SDS011;33183;52.290;6.144;2023-02-01T15:00:22;9.52;;;3.38;;
47431;SDS011;33183;52.290;6.144;2023-02-01T15:02:53;7.32;;;2.88;;
47431;SDS011;33183;52.290;6.144;2023-02-01T15:05:25;11.48;;;2.70;;
47431;SDS011;33183;52.290;6.144;2023-02-01T15:07:51;9.45;;;2.60;;
47431;SDS011;33183;52.290;6.144;2023-02-01T15:10:17;7.43;;;2.40;;
47431;SDS011;33183;52.290;6.144;2023-02-01T15:12:44;9.15;;;2.67;;
47431;SDS011;33183;52.290;6.144;2023-02-01T15:15:14;7.00;;;3.35;;
47431;SDS011;33183;52.290;6.144;2023-02-01T15:17:51;7.55;;;2.83;;
47431;SDS011;33183;52.290;6.144;2023-02-01T15:20:24;7.85;;;2.58;;
47431;SDS011;33183;52.290;6.144;2023-02-01T15:22:55;8.18;;;2.75;;
47431;SDS011;33183;52.290;6.144;2023-02-01T15:27:55;8.52;;;2.25;;
47431;SDS011;33183;52.290;6.144;2023-02-01T15:30:28;8.20;;;3.08;;
47431;SDS011;33183;52.290;6.144;2023-02-01T15:33:07;7.65;;;3.08;;
47431;SDS011;33183;52.290;6.144;2023-02-01T15:35:40;7.50;;;2.30;;
47431;SDS011;33183;52.290;6.144;2023-02-01T15:38:18;7.55;;;2.28;;
47431;SDS011;33183;52.290;6.144;2023-02-01T15:40:56;8.15;;;2.92;;
47431;SDS011;33183;52.290;6.144;2023-02-01T15:43:29;7.35;;;2.40;;
47431;SDS011;33183;52.290;6.144;2023-02-01T15:45:58;8.52;;;2.20;;
47431;SDS011;33183;52.290;6.144;2023-02-01T15:48:25;7.93;;;2.78;;
47431;SDS011;33183;52.290;6.144;2023-02-01T15:50:54;7.50;;;2.53;;
47431;SDS011;33183;52.290;6.144;2023-02-01T15:53:23;8.88;;;3.13;;
47431;SDS011;33183;52.290;6.144;2023-02-01T15:55:53;5.97;;;2.20;;
47431;SDS011;33183;52.290;6.144;2023-02-01T15:58:20;8.00;;;2.20;;
47431;SDS011;33183;52.290;6.144;2023-02-01T16:00:58;5.93;;;1.92;;
47431;SDS011;33183;52.290;6.144;2023-02-01T16:03:28;4.55;;;1.83;;
47431;SDS011;33183;52.290;6.144;2023-02-01T16:06:46;6.82;;;2.70;;
47431;SDS011;33183;52.290;6.144;2023-02-01T16:09:01;9.10;;;2.47;;
47431;SDS011;33183;52.290;6.144;2023-02-01T16:11:31;6.75;;;2.17;;
47431;SDS011;33183;52.290;6.144;2023-02-01T16:13:58;6.38;;;2.00;;
47431;SDS011;33183;52.290;6.144;2023-02-01T16:16:24;5.00;;;1.92;;
47431;SDS011;33183;52.290;6.144;2023-02-01T16:18:50;6.97;;;2.17;;
47431;SDS011;33183;52.290;6.144;2023-02-01T16:21:16;5.55;;;2.10;;
47431;SDS011;33183;52.290;6.144;2023-02-01T16:23:41;6.22;;;1.90;;
47431;SDS011;33183;52.290;6.144;2023-02-01T16:26:06;4.85;;;2.28;;
47431;SDS011;33183;52.290;6.144;2023-02-01T16:28:32;6.05;;;1.80;;
47431;SDS011;33183;52.290;6.144;2023-02-01T16:30:57;8.02;;;1.90;;
47431;SDS011;33183;52.290;6.144;2023-02-01T16:33:23;5.63;;;1.70;;
47431;SDS011;33183;52.290;6.144;2023-02-01T16:35:49;6.38;;;2.15;;
47431;SDS011;33183;52.290;6.144;2023-02-01T16:38:16;5.95;;;2.50;;
47431;SDS011;33183;52.290;6.144;2023-02-01T16:40:44;5.28;;;2.17;;
47431;SDS011;33183;52.290;6.144;2023-02-01T16:43:14;6.28;;;2.08;;
47431;SDS011;33183;52.290;6.144;2023-02-01T16:45:44;7.53;;;2.40;;
47431;SDS011;33183;52.290;6.144;2023-02-01T16:48:23;5.05;;;1.50;;
47431;SDS011;33183;52.290;6.144;2023-02-01T16:50:54;10.13;;;2.28;;
47431;SDS011;33183;52.290;6.144;2023-02-01T16:53:21;4.78;;;1.75;;
47431;SDS011;33183;52.290;6.144;2023-02-01T16:55:48;7.38;;;2.53;;
47431;SDS011;33183;52.290;6.144;2023-02-01T16:58:14;8.65;;;2.30;;
47431;SDS011;33183;52.290;6.144;2023-02-01T17:00:43;5.75;;;1.65;;
47431;SDS011;33183;52.290;6.144;2023-02-01T17:03:10;5.50;;;2.05;;
47431;SDS011;33183;52.290;6.144;2023-02-01T17:05:41;5.97;;;2.63;;
47431;SDS011;33183;52.290;6.144;2023-02-01T17:08:11;6.60;;;2.22;;
47431;SDS011;33183;52.290;6.144;2023-02-01T17:10:39;6.77;;;2.33;;
47431;SDS011;33183;52.290;6.144;2023-02-01T17:13:04;5.97;;;1.90;;
47431;SDS011;33183;52.290;6.144;2023-02-01T17:15:31;6.30;;;1.95;;
47431;SDS011;33183;52.290;6.144;2023-02-01T17:18:01;4.80;;;1.90;;
47431;SDS011;33183;52.290;6.144;2023-02-01T17:20:28;4.75;;;1.83;;
47431;SDS011;33183;52.290;6.144;2023-02-01T17:22:54;6.47;;;2.08;;
47431;SDS011;33183;52.290;6.144;2023-02-01T17:25:20;5.65;;;1.88;;
47431;SDS011;33183;52.290;6.144;2023-02-01T17:27:47;7.63;;;2.05;;
47431;SDS011;33183;52.290;6.144;2023-02-01T17:30:13;6.90;;;2.03;;
47431;SDS011;33183;52.290;6.144;2023-02-01T17:32:39;8.63;;;2.42;;